createdAt,value
2023-04-08T00:01:24.457Z,9.05
2023-04-08T00:03:53.956Z,7.35
2023-04-08T00:06:21.862Z,9.63
2023-04-08T00:08:49.772Z,8.48
2023-04-08T00:11:17.702Z,8.43
2023-04-08T00:13:45.994Z,7.40
2023-04-08T00:16:13.857Z,7.50
2023-04-08T00:18:42.642Z,7.82
2023-04-08T00:21:11.734Z,7.25
2023-04-08T00:23:39.433Z,7.05
2023-04-08T00:26:07.256Z,8.65
2023-04-08T00:28:34.940Z,7.50
2023-04-08T00:31:02.733Z,7.32
2023-04-08T00:33:32.521Z,7.68
2023-04-08T00:36:00.280Z,6.57
2023-04-08T00:38:29.586Z,6.72
2023-04-08T00:40:58.313Z,6.13
2023-04-08T00:43:26.160Z,6.65
2023-04-08T00:45:53.993Z,6.55
2023-04-08T00:48:21.793Z,7.07
2023-04-08T00:50:49.579Z,6.80
2023-04-08T00:53:19.738Z,7.20
2023-04-08T00:55:48.949Z,7.43
2023-04-08T00:58:18.527Z,8.13
2023-04-08T01:00:54.457Z,6.75
2023-04-08T01:03:32.630Z,6.47
2023-04-08T01:06:09.497Z,6.38
2023-04-08T01:08:41.084Z,6.82
2023-04-08T01:11:12.888Z,6.85
2023-04-08T01:13:44.110Z,7.63
2023-04-08T01:16:15.354Z,6.57
2023-04-08T01:18:45.386Z,6.82
2023-04-08T01:21:15.836Z,5.85
2023-04-08T01:23:54.070Z,6.53
2023-04-08T01:26:26.657Z,5.32
2023-04-08T01:28:56.449Z,5.70
2023-04-08T01:31:26.469Z,5.10
2023-04-08T01:33:55.929Z,5.40
2023-04-08T01:36:25.246Z,5.43
2023-04-08T01:38:53.092Z,4.90
2023-04-08T01:41:22.025Z,5.30
2023-04-08T01:43:53.001Z,5.50
2023-04-08T01:46:22.799Z,5.55
2023-04-08T01:48:52.016Z,4.70
2023-04-08T01:51:20.788Z,4.65
2023-04-08T01:53:48.593Z,5.30
2023-04-08T01:56:17.515Z,5.20
2023-04-08T01:58:52.552Z,4.50
2023-04-08T02:01:25.547Z,4.55
2023-04-08T02:03:57.562Z,4.57
2023-04-08T02:06:27.667Z,4.30
2023-04-08T02:08:55.528Z,4.70
2023-04-08T02:11:23.356Z,4.82
2023-04-08T02:13:52.474Z,4.45
2023-04-08T02:16:30.022Z,4.18
2023-04-08T02:19:04.690Z,4.13
2023-04-08T02:21:38.434Z,4.68
2023-04-08T02:24:08.474Z,4.05
2023-04-08T02:26:38.219Z,4.90
2023-04-08T02:29:06.914Z,4.47
2023-04-08T02:31:36.681Z,4.90
2023-04-08T02:34:06.576Z,4.30
2023-04-08T02:36:34.588Z,5.00
2023-04-08T02:39:04.376Z,5.00
2023-04-08T02:41:32.685Z,4.53
2023-04-08T02:44:00.511Z,4.82
2023-04-08T02:46:28.373Z,5.07
2023-04-08T02:48:57.664Z,5.00
2023-04-08T02:51:26.223Z,5.22
2023-04-08T02:53:54.069Z,4.90
2023-04-08T02:56:22.273Z,4.70
2023-04-08T02:58:52.127Z,5.38
2023-04-08T03:01:20.022Z,5.22
2023-04-08T03:03:47.922Z,4.95
2023-04-08T03:06:17.481Z,4.47
2023-04-08T03:08:45.314Z,4.85
2023-04-08T03:11:12.992Z,4.90
2023-04-08T03:13:40.886Z,5.90
2023-04-08T03:16:09.122Z,5.63
2023-04-08T03:18:36.852Z,5.07
2023-04-08T03:21:04.749Z,5.00
2023-04-08T03:23:33.818Z,4.45
2023-04-08T03:26:01.599Z,5.88
2023-04-08T03:28:29.364Z,5.65
2023-04-08T03:30:57.437Z,5.93
2023-04-08T03:33:25.163Z,4.78
2023-04-08T03:35:52.992Z,5.88
2023-04-08T03:38:20.810Z,6.35
2023-04-08T03:40:49.864Z,5.65
2023-04-08T03:43:19.564Z,5.22
2023-04-08T03:45:47.311Z,6.25
2023-04-08T03:48:15.130Z,5.13
2023-04-08T03:50:42.834Z,6.65
2023-04-08T03:53:12.847Z,5.88
2023-04-08T03:55:40.890Z,6.63
2023-04-08T03:58:10.027Z,6.68
2023-04-08T04:00:37.857Z,6.88
2023-04-08T04:03:05.708Z,7.00
2023-04-08T04:05:33.501Z,7.22
2023-04-08T04:08:01.211Z,7.47
2023-04-08T04:10:28.921Z,6.70
2023-04-08T04:12:56.635Z,6.40
2023-04-08T04:15:25.755Z,6.82
2023-04-08T04:17:53.586Z,7.22
2023-04-08T04:20:21.865Z,7.38
2023-04-08T04:22:49.681Z,6.53
2023-04-08T04:25:17.398Z,6.43
2023-04-08T04:27:45.160Z,6.82
2023-04-08T04:30:15.409Z,7.38
2023-04-08T04:32:44.744Z,8.13
2023-04-08T04:35:12.765Z,7.20
2023-04-08T04:37:40.611Z,7.63
2023-04-08T04:40:09.007Z,6.95
2023-04-08T04:42:36.691Z,9.52
2023-04-08T04:45:05.239Z,8.55
2023-04-08T04:47:33.061Z,8.50
2023-04-08T04:50:02.358Z,8.80
2023-04-08T04:52:30.723Z,8.70
2023-04-08T04:54:58.482Z,8.30
2023-04-08T04:57:26.275Z,8.50
2023-04-08T04:59:53.993Z,8.25
2023-04-08T05:02:21.969Z,8.15
2023-04-08T05:04:49.777Z,6.72
2023-04-08T05:07:18.868Z,7.65
2023-04-08T05:09:46.738Z,7.78
2023-04-08T05:12:14.537Z,7.47
2023-04-08T05:14:42.311Z,6.78
2023-04-08T05:17:10.089Z,6.60
2023-04-08T05:19:37.817Z,6.40
2023-04-08T05:22:05.650Z,6.53
2023-04-08T05:24:34.744Z,7.00
2023-04-08T05:27:02.477Z,7.10
2023-04-08T05:29:30.189Z,7.07
2023-04-08T05:31:57.946Z,6.85
2023-04-08T05:34:25.801Z,7.30
2023-04-08T05:36:53.509Z,6.95
2023-04-08T05:39:21.520Z,6.53
2023-04-08T05:41:50.601Z,6.35
2023-04-08T05:44:18.665Z,5.82
2023-04-08T05:46:46.499Z,6.50
2023-04-08T05:49:14.196Z,6.00
2023-04-08T05:51:41.917Z,5.80
2023-04-08T05:54:10.079Z,6.18
2023-04-08T05:56:37.864Z,5.40
2023-04-08T05:59:06.946Z,6.25
2023-04-08T06:01:34.736Z,5.93
2023-04-08T06:04:02.770Z,6.20
2023-04-08T06:06:30.816Z,5.60
2023-04-08T06:08:58.525Z,5.80
2023-04-08T06:11:26.488Z,6.43
2023-04-08T06:13:54.314Z,6.10
2023-04-08T06:16:23.444Z,5.88
2023-04-08T06:18:52.176Z,6.50
2023-04-08T06:21:20.180Z,6.00
2023-04-08T06:23:48.026Z,6.88
2023-04-08T06:26:16.154Z,6.43
2023-04-08T06:28:43.970Z,6.18
2023-04-08T06:31:11.745Z,6.20
2023-04-08T06:33:41.109Z,6.22
2023-04-08T06:36:09.558Z,6.88
2023-04-08T06:38:37.284Z,6.72
2023-04-08T06:41:05.270Z,6.20
2023-04-08T06:43:33.533Z,6.57
2023-04-08T06:46:01.470Z,6.15
2023-04-08T06:48:30.436Z,6.90
2023-04-08T06:51:01.303Z,6.47
2023-04-08T06:53:31.248Z,6.70
2023-04-08T06:55:59.000Z,6.60
2023-04-08T06:58:27.283Z,7.65
2023-04-08T07:00:56.206Z,6.78
2023-04-08T07:03:24.238Z,7.72
2023-04-08T07:05:52.087Z,6.82
2023-04-08T07:08:21.234Z,6.60
2023-04-08T07:10:49.014Z,7.53
2023-04-08T07:13:17.428Z,6.93
2023-04-08T07:15:45.210Z,7.63
2023-04-08T07:18:13.498Z,7.75
2023-04-08T07:20:41.977Z,6.90
2023-04-08T07:23:10.801Z,8.05
2023-04-08T07:25:39.974Z,7.22
2023-04-08T07:28:07.718Z,6.93
2023-04-08T07:30:35.475Z,7.32
2023-04-08T07:33:03.286Z,7.30
2023-04-08T07:35:31.954Z,7.40
2023-04-08T07:38:00.028Z,7.13
2023-04-08T07:40:27.805Z,6.10
2023-04-08T07:42:56.939Z,7.63
2023-04-08T07:45:24.623Z,7.32
2023-04-08T07:47:52.453Z,6.88
2023-04-08T07:50:20.316Z,6.90
2023-04-08T07:52:48.014Z,7.20
2023-04-08T07:55:15.820Z,6.93
2023-04-08T07:57:43.715Z,7.88
2023-04-08T08:00:20.695Z,8.00
2023-04-08T08:02:49.110Z,6.88
2023-04-08T08:05:17.213Z,7.25
2023-04-08T08:07:45.203Z,9.07
2023-04-08T08:10:13.012Z,8.75
2023-04-08T08:12:40.882Z,7.82
2023-04-08T08:15:09.995Z,8.38
2023-04-08T08:17:39.114Z,9.13
2023-04-08T08:20:08.265Z,8.70
2023-04-08T08:22:41.826Z,6.93
2023-04-08T08:25:19.703Z,7.82
2023-04-08T08:27:47.653Z,8.82
2023-04-08T08:30:16.246Z,8.75
2023-04-08T08:32:45.651Z,8.43
2023-04-08T08:35:13.493Z,9.18
2023-04-08T08:37:41.729Z,7.95
2023-04-08T08:40:10.433Z,8.27
2023-04-08T08:42:39.237Z,9.20
2023-04-08T08:45:08.181Z,9.13
2023-04-08T08:47:36.100Z,8.32
2023-04-08T08:50:05.887Z,9.43
2023-04-08T08:52:33.688Z,8.75
2023-04-08T08:55:01.676Z,9.35
2023-04-08T08:57:29.738Z,9.15
2023-04-08T08:59:57.635Z,9.73
2023-04-08T09:02:28.410Z,8.30
2023-04-08T09:05:01.119Z,9.60
2023-04-08T09:07:31.629Z,9.80
2023-04-08T09:10:00.621Z,10.15
2023-04-08T09:12:29.462Z,9.95
2023-04-08T09:15:07.777Z,9.98
2023-04-08T09:17:36.718Z,10.10
2023-04-08T09:20:12.616Z,9.77
2023-04-08T09:23:00.725Z,9.55
2023-04-08T09:25:30.166Z,10.15
2023-04-08T09:27:57.926Z,9.73
2023-04-08T09:30:27.359Z,8.70
2023-04-08T09:32:57.016Z,9.15
2023-04-08T09:35:25.944Z,9.73
2023-04-08T09:37:53.748Z,9.30
2023-04-08T09:40:26.241Z,9.82
2023-04-08T09:42:56.199Z,9.23
2023-04-08T09:45:27.888Z,9.80
2023-04-08T09:47:59.097Z,9.60
2023-04-08T09:50:32.311Z,12.02
2023-04-08T09:53:08.825Z,11.77
2023-04-08T09:58:12.500Z,9.55
2023-04-08T10:00:50.494Z,9.80
2023-04-08T10:03:29.132Z,10.18
2023-04-08T10:05:58.656Z,10.55
2023-04-08T10:08:27.665Z,9.80
2023-04-08T10:10:57.425Z,9.68
2023-04-08T10:13:28.266Z,11.20
2023-04-08T10:16:19.591Z,10.18
2023-04-08T10:18:47.452Z,9.30
2023-04-08T10:21:36.066Z,10.57
2023-04-08T10:24:07.171Z,11.65
2023-04-08T10:26:38.203Z,11.10
2023-04-08T10:29:42.617Z,12.10
2023-04-08T10:32:10.732Z,11.48
2023-04-08T10:34:53.690Z,10.13
2023-04-08T10:37:21.477Z,9.98
2023-04-08T10:39:53.189Z,12.20
2023-04-08T10:42:28.455Z,12.55
2023-04-08T10:45:01.400Z,11.90
2023-04-08T10:47:29.197Z,10.48
2023-04-08T10:49:57.726Z,11.35
2023-04-08T10:52:27.468Z,10.80
2023-04-08T10:54:55.946Z,9.95
2023-04-08T10:57:28.145Z,8.88
2023-04-08T10:59:56.424Z,12.57
2023-04-08T11:02:24.276Z,12.05
2023-04-08T11:04:55.915Z,10.05
2023-04-08T11:07:23.658Z,9.50
2023-04-08T11:09:51.332Z,10.68
2023-04-08T11:12:19.691Z,10.75
2023-04-08T11:14:51.558Z,10.48
2023-04-08T11:17:20.082Z,11.40
2023-04-08T11:19:47.862Z,10.98
2023-04-08T11:22:15.725Z,10.90
2023-04-08T11:24:44.118Z,11.75
2023-04-08T11:27:12.030Z,12.05
2023-04-08T11:29:39.989Z,12.02
2023-04-08T11:32:09.929Z,12.05
2023-04-08T11:34:40.591Z,11.82
2023-04-08T11:37:08.419Z,12.23
2023-04-08T11:39:42.436Z,11.77
2023-04-08T11:42:10.731Z,12.40
2023-04-08T11:44:38.467Z,13.60
2023-04-08T11:47:07.262Z,12.55
2023-04-08T11:49:46.603Z,12.27
2023-04-08T11:52:14.451Z,14.43
2023-04-08T11:54:43.500Z,12.25
2023-04-08T11:57:11.405Z,13.15
2023-04-08T11:59:39.272Z,12.80
2023-04-08T12:02:07.118Z,11.60
2023-04-08T12:04:35.190Z,11.70
2023-04-08T12:07:04.368Z,13.20
2023-04-08T12:09:32.121Z,12.55
2023-04-08T12:11:59.904Z,11.35
2023-04-08T12:14:28.522Z,11.75
2023-04-08T12:16:56.661Z,11.48
2023-04-08T12:19:24.548Z,12.32
2023-04-08T12:21:52.266Z,11.05
2023-04-08T12:24:21.428Z,10.57
2023-04-08T12:26:49.248Z,10.77
2023-04-08T12:29:17.236Z,12.63
2023-04-08T12:31:44.985Z,11.73
2023-04-08T12:34:13.280Z,10.70
2023-04-08T12:36:41.989Z,10.65
2023-04-08T12:39:10.076Z,12.55
2023-04-08T12:41:39.196Z,12.35
2023-04-08T12:44:06.968Z,11.68
2023-04-08T12:46:34.982Z,12.80
2023-04-08T12:49:04.694Z,12.57
2023-04-08T12:51:33.350Z,12.80
2023-04-08T12:54:01.970Z,11.63
2023-04-08T12:56:29.999Z,12.77
2023-04-08T12:58:59.392Z,11.82
2023-04-08T13:01:27.376Z,12.52
2023-04-08T13:03:55.561Z,12.82
2023-04-08T13:06:23.945Z,11.98
2023-04-08T13:08:51.974Z,11.30
2023-04-08T13:11:19.922Z,11.32
2023-04-08T13:13:47.750Z,12.70
2023-04-08T13:16:17.352Z,11.85
2023-04-08T13:18:45.228Z,12.70
2023-04-08T13:21:12.952Z,12.63
2023-04-08T13:23:40.797Z,12.90
2023-04-08T13:26:08.537Z,12.88
2023-04-08T13:28:49.709Z,11.52
2023-04-08T13:31:25.687Z,11.07
2023-04-08T13:33:56.042Z,12.32
2023-04-08T13:36:25.957Z,12.77
2023-04-08T13:38:53.881Z,12.73
2023-04-08T13:41:22.136Z,11.13
2023-04-08T13:43:50.469Z,11.00
2023-04-08T13:46:18.640Z,12.00
2023-04-08T13:48:47.784Z,12.45
2023-04-08T13:51:15.522Z,11.57
2023-04-08T13:53:43.404Z,11.10
2023-04-08T13:56:11.572Z,13.60
2023-04-08T13:58:39.402Z,12.38
2023-04-08T14:01:07.179Z,10.93
2023-04-08T14:03:35.093Z,11.85
2023-04-08T14:06:04.423Z,12.45
2023-04-08T14:08:32.269Z,11.20
2023-04-08T14:11:00.185Z,11.63
2023-04-08T14:13:27.988Z,11.02
2023-04-08T14:15:58.264Z,11.32
2023-04-08T14:18:26.426Z,11.80
2023-04-08T14:20:54.323Z,13.65
2023-04-08T14:23:23.410Z,10.95
2023-04-08T14:25:51.267Z,10.25
2023-04-08T14:28:18.960Z,10.93
2023-04-08T14:30:47.503Z,11.38
2023-04-08T14:33:15.438Z,12.18
2023-04-08T14:35:43.258Z,10.32
2023-04-08T14:38:11.426Z,12.23
2023-04-08T14:40:40.574Z,12.70
2023-04-08T14:43:08.365Z,12.15
2023-04-08T14:45:36.117Z,11.18
2023-04-08T14:48:03.967Z,12.07
2023-04-08T14:50:31.952Z,12.18
2023-04-08T14:52:59.819Z,10.65
2023-04-08T14:55:28.620Z,13.07
2023-04-08T14:57:59.810Z,11.52
2023-04-08T15:00:28.879Z,10.85
2023-04-08T15:02:56.812Z,10.95
2023-04-08T15:05:24.639Z,10.27
2023-04-08T15:07:52.456Z,10.82
2023-04-08T15:10:20.542Z,10.02
2023-04-08T15:12:48.325Z,11.80
2023-04-08T15:15:17.678Z,12.75
2023-04-08T15:17:45.645Z,10.23
2023-04-08T15:20:14.502Z,12.25
2023-04-08T15:22:42.345Z,9.88
2023-04-08T15:25:11.216Z,12.48
2023-04-08T15:27:39.007Z,10.93
2023-04-08T15:30:07.941Z,11.88
2023-04-08T15:32:37.158Z,12.90
2023-04-08T15:35:05.456Z,12.05
2023-04-08T15:37:33.256Z,11.90
2023-04-08T15:40:01.340Z,12.73
2023-04-08T15:42:29.116Z,12.77
2023-04-08T15:44:56.851Z,11.88
2023-04-08T15:47:31.801Z,12.02
2023-04-08T15:50:01.292Z,11.75
2023-04-08T15:52:29.034Z,10.32
2023-04-08T15:54:56.798Z,12.98
2023-04-08T15:57:26.704Z,10.57
2023-04-08T15:59:54.660Z,10.88
2023-04-08T16:02:22.468Z,10.90
2023-04-08T16:04:50.657Z,11.65
2023-04-08T16:07:20.082Z,11.05
2023-04-08T16:09:47.821Z,10.07
2023-04-08T16:12:16.378Z,10.02
2023-04-08T16:14:44.092Z,10.45
2023-04-08T16:17:12.004Z,8.93
2023-04-08T16:19:39.962Z,11.43
2023-04-08T16:22:07.768Z,10.63
2023-04-08T16:24:37.605Z,11.43
2023-04-08T16:27:05.583Z,9.90
2023-04-08T16:29:33.549Z,11.68
2023-04-08T16:32:01.619Z,10.40
2023-04-08T16:34:30.322Z,12.07
2023-04-08T16:36:58.241Z,10.23
2023-04-08T16:39:26.172Z,14.25
2023-04-08T16:41:55.318Z,12.10
2023-04-08T16:44:23.160Z,11.18
2023-04-08T16:46:51.364Z,12.73
2023-04-08T16:49:19.198Z,14.70
2023-04-08T16:51:47.003Z,16.35
2023-04-08T16:54:14.838Z,16.58
2023-04-08T16:56:45.482Z,13.63
2023-04-08T16:59:14.709Z,12.63
2023-04-08T17:01:42.483Z,14.50
2023-04-08T17:04:10.731Z,13.52
2023-04-08T17:06:41.165Z,14.43
2023-04-08T17:09:09.127Z,15.60
2023-04-08T17:11:37.031Z,13.57
2023-04-08T17:14:05.089Z,13.35
2023-04-08T17:16:34.278Z,15.25
2023-04-08T17:19:02.037Z,15.85
2023-04-08T17:21:30.936Z,17.05
2023-04-08T17:23:58.859Z,14.20
2023-04-08T17:26:28.173Z,14.32
2023-04-08T17:28:56.011Z,13.98
2023-04-08T17:31:23.759Z,13.07
2023-04-08T17:33:53.121Z,14.15
2023-04-08T17:36:21.076Z,13.25
2023-04-08T17:38:49.348Z,14.05
2023-04-08T17:41:29.878Z,14.02
2023-04-08T17:44:03.165Z,14.23
2023-04-08T17:46:32.953Z,15.63
2023-04-08T17:49:02.736Z,13.88
2023-04-08T17:51:31.993Z,14.00
2023-04-08T17:53:59.861Z,14.23
2023-04-08T17:56:28.218Z,14.77
2023-04-08T17:58:56.036Z,18.75
2023-04-08T18:01:23.793Z,22.88
2023-04-08T18:03:52.179Z,26.73
2023-04-08T18:06:21.481Z,19.17
2023-04-08T18:08:49.337Z,14.95
2023-04-08T18:11:17.066Z,17.42
2023-04-08T18:13:45.991Z,14.80
2023-04-08T18:16:17.959Z,14.98
2023-04-08T18:18:45.958Z,15.75
2023-04-08T18:21:14.998Z,14.63
2023-04-08T18:23:44.221Z,16.60
2023-04-08T18:26:12.029Z,17.25
2023-04-08T18:28:39.857Z,18.83
2023-04-08T18:31:07.737Z,19.98
2023-04-08T18:33:35.665Z,21.55
2023-04-08T18:36:08.005Z,21.75
2023-04-08T18:38:36.212Z,21.08
2023-04-08T18:41:05.793Z,22.10
2023-04-08T18:43:33.962Z,20.23
2023-04-08T18:46:01.933Z,17.90
2023-04-08T18:48:30.049Z,18.17
2023-04-08T18:50:58.007Z,15.40
2023-04-08T18:53:25.850Z,20.17
2023-04-08T18:55:53.566Z,16.63
2023-04-08T18:58:22.700Z,15.82
2023-04-08T19:00:50.903Z,17.45
2023-04-08T19:03:18.722Z,15.77
2023-04-08T19:05:46.512Z,18.33
2023-04-08T19:08:14.281Z,16.75
2023-04-08T19:10:42.070Z,15.02
2023-04-08T19:13:09.826Z,15.95
2023-04-08T19:15:39.147Z,17.63
2023-04-08T19:18:07.147Z,18.05
2023-04-08T19:20:35.097Z,16.98
2023-04-08T19:23:03.452Z,17.50
2023-04-08T19:25:31.800Z,16.25
2023-04-08T19:27:59.874Z,16.45
2023-04-08T19:30:27.627Z,14.45
2023-04-08T19:32:56.883Z,13.75
2023-04-08T19:35:25.209Z,15.50
2023-04-08T19:37:52.967Z,14.80
2023-04-08T19:40:20.942Z,14.43
2023-04-08T19:42:48.732Z,15.68
2023-04-08T19:45:17.225Z,16.13
2023-04-08T19:47:45.124Z,14.32
2023-04-08T19:50:14.795Z,15.55
2023-04-08T19:52:42.574Z,14.48
2023-04-08T19:55:11.234Z,14.50
2023-04-08T19:57:39.410Z,17.13
2023-04-08T20:00:08.471Z,14.07
2023-04-08T20:02:36.541Z,14.13
2023-04-08T20:05:04.810Z,21.88
2023-04-08T20:07:33.983Z,34.58
2023-04-08T20:10:01.906Z,35.30
2023-04-08T20:12:30.291Z,24.55
2023-04-08T20:14:58.013Z,21.00
2023-04-08T20:17:26.416Z,20.33
2023-04-08T20:19:54.428Z,19.40
2023-04-08T20:22:22.631Z,16.70
2023-04-08T20:24:51.824Z,17.52
2023-04-08T20:27:19.822Z,19.52
2023-04-08T20:29:47.612Z,22.23
2023-04-08T20:32:17.223Z,19.80
2023-04-08T20:34:44.975Z,19.55
2023-04-08T20:37:12.757Z,19.17
2023-04-08T20:39:40.465Z,17.40
2023-04-08T20:42:09.647Z,17.10
2023-04-08T20:44:37.650Z,20.50
2023-04-08T20:47:05.497Z,18.52
2023-04-08T20:49:34.650Z,17.63
2023-04-08T20:52:02.672Z,15.90
2023-04-08T20:54:31.657Z,19.40
2023-04-08T20:56:59.477Z,20.00
2023-04-08T20:59:28.648Z,19.10
2023-04-08T21:01:56.451Z,16.45
2023-04-08T21:04:24.682Z,18.00
2023-04-08T21:06:52.408Z,14.60
2023-04-08T21:09:20.189Z,16.83
2023-04-08T21:11:48.149Z,16.70
2023-04-08T21:14:15.866Z,16.67
2023-04-08T21:16:45.102Z,20.55
2023-04-08T21:19:13.169Z,19.80
2023-04-08T21:21:41.042Z,19.77
2023-04-08T21:24:09.806Z,19.25
2023-04-08T21:26:37.581Z,17.77
2023-04-08T21:29:05.386Z,22.80
2023-04-08T21:31:33.302Z,19.13
2023-04-08T21:34:02.445Z,17.75
2023-04-08T21:36:31.361Z,16.90
2023-04-08T21:38:59.098Z,15.80
2023-04-08T21:41:28.442Z,17.88
2023-04-08T21:43:58.242Z,20.00
2023-04-08T21:46:26.172Z,19.15
2023-04-08T21:48:54.218Z,17.77
2023-04-08T21:51:23.333Z,16.98
2023-04-08T21:53:51.820Z,21.80
2023-04-08T21:56:19.739Z,19.23
2023-04-08T21:58:47.558Z,22.65
2023-04-08T22:01:15.362Z,20.65
2023-04-08T22:03:43.860Z,21.33
2023-04-08T22:06:19.177Z,20.40
2023-04-08T22:08:55.128Z,23.23
2023-04-08T22:11:22.804Z,20.27
2023-04-08T22:13:51.008Z,18.13
2023-04-08T22:16:18.756Z,22.17
2023-04-08T22:18:46.647Z,20.95
2023-04-08T22:21:14.492Z,21.27
2023-04-08T22:23:42.295Z,18.90
2023-04-08T22:26:11.681Z,20.80
2023-04-08T22:28:39.424Z,19.20
2023-04-08T22:31:10.142Z,20.52
2023-04-08T22:33:38.103Z,20.65
2023-04-08T22:36:05.947Z,18.85
2023-04-08T22:38:33.856Z,18.90
2023-04-08T22:41:01.664Z,17.08
2023-04-08T22:43:30.847Z,21.13
2023-04-08T22:45:58.825Z,26.65
2023-04-08T22:48:26.598Z,23.35
2023-04-08T22:50:54.442Z,27.27
2023-04-08T22:53:22.191Z,20.77
2023-04-08T22:55:49.989Z,23.77
2023-04-08T22:58:17.801Z,23.48
2023-04-08T23:00:46.904Z,20.02
2023-04-08T23:03:14.718Z,21.17
2023-04-08T23:05:42.554Z,22.10
2023-04-08T23:08:10.471Z,21.70
2023-04-08T23:10:38.257Z,20.30
2023-04-08T23:13:06.166Z,21.90
2023-04-08T23:15:33.991Z,22.15
2023-04-08T23:18:03.103Z,20.67
2023-04-08T23:20:30.975Z,18.27
2023-04-08T23:22:58.666Z,19.40
2023-04-08T23:25:26.454Z,18.95
2023-04-08T23:27:55.373Z,24.00
2023-04-08T23:30:23.231Z,19.83
2023-04-08T23:32:50.988Z,19.95
2023-04-08T23:35:20.687Z,25.42
2023-04-08T23:37:48.445Z,21.45
2023-04-08T23:40:16.240Z,17.13
2023-04-08T23:42:43.977Z,16.55
2023-04-08T23:45:12.131Z,20.92
2023-04-08T23:47:40.055Z,18.90
2023-04-08T23:50:09.162Z,20.73
2023-04-08T23:52:38.236Z,20.27
2023-04-08T23:55:06.933Z,19.77
2023-04-08T23:57:34.657Z,23.73
